sensor_id;sensor_type;location;lat;lon;timestamp;temperature;humidity
26990;DHT22;14537;47.788;11.858;2024-03-22T00:01:46;4.90;99.90
26990;DHT22;14537;47.788;11.858;2024-03-22T00:04:15;4.90;99.90
26990;DHT22;14537;47.788;11.858;2024-03-22T00:06:46;4.90;99.90
26990;DHT22;14537;47.788;11.858;2024-03-22T00:09:11;4.90;99.90
26990;DHT22;14537;47.788;11.858;2024-03-22T00:11:39;5.00;99.90
26990;DHT22;14537;47.788;11.858;2024-03-22T00:14:05;4.90;99.90
26990;DHT22;14537;47.788;11.858;2024-03-22T00:16:31;4.90;99.90
26990;DHT22;14537;47.788;11.858;2024-03-22T00:18:56;4.80;99.90
26990;DHT22;14537;47.788;11.858;2024-03-22T00:21:22;4.90;99.90
26990;DHT22;14537;47.788;11.858;2024-03-22T00:23:48;4.80;99.90
26990;DHT22;14537;47.788;11.858;2024-03-22T00:26:14;4.80;99.90
26990;DHT22;14537;47.788;11.858;2024-03-22T00:28:40;4.70;99.90
26990;DHT22;14537;47.788;11.858;2024-03-22T00:31:05;4.70;99.90
26990;DHT22;14537;47.788;11.858;2024-03-22T00:33:31;4.70;99.90
26990;DHT22;14537;47.788;11.858;2024-03-22T00:35:57;4.60;99.90
26990;DHT22;14537;47.788;11.858;2024-03-22T00:38:23;4.60;99.90
26990;DHT22;14537;47.788;11.858;2024-03-22T00:40:48;4.60;99.90
26990;DHT22;14537;47.788;11.858;2024-03-22T00:43:14;4.50;99.90
26990;DHT22;14537;47.788;11.858;2024-03-22T00:45:39;4.50;99.90
26990;DHT22;14537;47.788;11.858;2024-03-22T00:48:05;4.40;99.90
26990;DHT22;14537;47.788;11.858;2024-03-22T00:50:31;4.40;99.90
26990;DHT22;14537;47.788;11.858;2024-03-22T00:52:56;4.40;99.90
26990;DHT22;14537;47.788;11.858;2024-03-22T00:55:23;4.40;99.90
26990;DHT22;14537;47.788;11.858;2024-03-22T00:57:49;4.40;99.90
26990;DHT22;14537;47.788;11.858;2024-03-22T01:00:15;4.40;99.90
26990;DHT22;14537;47.788;11.858;2024-03-22T01:02:42;4.40;99.90
26990;DHT22;14537;47.788;11.858;2024-03-22T01:05:08;4.30;99.90
26990;DHT22;14537;47.788;11.858;2024-03-22T01:07:33;4.30;99.90
26990;DHT22;14537;47.788;11.858;2024-03-22T01:09:59;4.30;99.90
26990;DHT22;14537;47.788;11.858;2024-03-22T01:12:25;4.30;99.90
26990;DHT22;14537;47.788;11.858;2024-03-22T01:14:51;4.30;99.90
26990;DHT22;14537;47.788;11.858;2024-03-22T01:17:16;4.30;99.90
26990;DHT22;14537;47.788;11.858;2024-03-22T01:19:42;4.30;99.90
26990;DHT22;14537;47.788;11.858;2024-03-22T01:22:07;4.30;99.90
26990;DHT22;14537;47.788;11.858;2024-03-22T01:24:33;4.30;99.90
26990;DHT22;14537;47.788;11.858;2024-03-22T01:26:59;4.20;99.90
26990;DHT22;14537;47.788;11.858;2024-03-22T01:29:24;4.20;99.90
26990;DHT22;14537;47.788;11.858;2024-03-22T01:31:50;4.20;99.90
26990;DHT22;14537;47.788;11.858;2024-03-22T01:34:16;4.20;99.90
26990;DHT22;14537;47.788;11.858;2024-03-22T01:36:41;4.10;99.90
26990;DHT22;14537;47.788;11.858;2024-03-22T01:39:07;4.10;99.90
26990;DHT22;14537;47.788;11.858;2024-03-22T01:41:32;4.10;99.90
26990;DHT22;14537;47.788;11.858;2024-03-22T01:43:58;4.10;99.90
26990;DHT22;14537;47.788;11.858;2024-03-22T01:46:24;4.10;99.90
26990;DHT22;14537;47.788;11.858;2024-03-22T01:48:50;4.00;99.90
26990;DHT22;14537;47.788;11.858;2024-03-22T01:51:17;4.00;99.90
26990;DHT22;14537;47.788;11.858;2024-03-22T01:53:43;4.00;99.90
26990;DHT22;14537;47.788;11.858;2024-03-22T01:56:09;3.90;99.90
26990;DHT22;14537;47.788;11.858;2024-03-22T01:58:35;3.80;99.90
26990;DHT22;14537;47.788;11.858;2024-03-22T02:01:01;3.80;99.90
26990;DHT22;14537;47.788;11.858;2024-03-22T02:03:27;3.80;99.90
26990;DHT22;14537;47.788;11.858;2024-03-22T02:05:53;3.70;99.90
26990;DHT22;14537;47.788;11.858;2024-03-22T02:08:19;3.60;99.90
26990;DHT22;14537;47.788;11.858;2024-03-22T02:10:45;3.50;99.90
26990;DHT22;14537;47.788;11.858;2024-03-22T02:13:10;3.50;99.90
26990;DHT22;14537;47.788;11.858;2024-03-22T02:15:36;3.50;99.90
26990;DHT22;14537;47.788;11.858;2024-03-22T02:18:02;3.50;99.90
26990;DHT22;14537;47.788;11.858;2024-03-22T02:20:27;3.50;99.90
26990;DHT22;14537;47.788;11.858;2024-03-22T02:22:53;3.50;99.90
26990;DHT22;14537;47.788;11.858;2024-03-22T02:25:18;3.40;99.90
26990;DHT22;14537;47.788;11.858;2024-03-22T02:27:44;3.40;99.90
26990;DHT22;14537;47.788;11.858;2024-03-22T02:30:10;3.30;99.90
26990;DHT22;14537;47.788;11.858;2024-03-22T02:32:35;3.30;99.90
26990;DHT22;14537;47.788;11.858;2024-03-22T02:35:02;3.40;99.90
26990;DHT22;14537;47.788;11.858;2024-03-22T02:37:28;3.50;99.90
26990;DHT22;14537;47.788;11.858;2024-03-22T02:39:53;3.50;99.90
26990;DHT22;14537;47.788;11.858;2024-03-22T02:42:19;3.60;99.90
26990;DHT22;14537;47.788;11.858;2024-03-22T02:44:44;3.60;99.90
26990;DHT22;14537;47.788;11.858;2024-03-22T02:47:10;3.50;99.90
26990;DHT22;14537;47.788;11.858;2024-03-22T02:49:38;3.40;99.90
26990;DHT22;14537;47.788;11.858;2024-03-22T02:52:04;3.40;99.90
26990;DHT22;14537;47.788;11.858;2024-03-22T02:54:30;3.40;99.90
26990;DHT22;14537;47.788;11.858;2024-03-22T02:56:56;3.30;99.90
26990;DHT22;14537;47.788;11.858;2024-03-22T02:59:21;3.30;99.90
26990;DHT22;14537;47.788;11.858;2024-03-22T03:01:47;3.30;99.90
26990;DHT22;14537;47.788;11.858;2024-03-22T03:04:12;3.30;99.90
26990;DHT22;14537;47.788;11.858;2024-03-22T03:06:38;3.20;99.90
26990;DHT22;14537;47.788;11.858;2024-03-22T03:09:04;3.30;99.90
26990;DHT22;14537;47.788;11.858;2024-03-22T03:11:38;3.30;99.90
26990;DHT22;14537;47.788;11.858;2024-03-22T03:14:03;3.30;99.90
26990;DHT22;14537;47.788;11.858;2024-03-22T03:16:29;3.20;99.90
26990;DHT22;14537;47.788;11.858;2024-03-22T03:18:54;3.10;99.90
26990;DHT22;14537;47.788;11.858;2024-03-22T03:21:20;3.00;99.90
26990;DHT22;14537;47.788;11.858;2024-03-22T03:23:46;2.90;99.90
26990;DHT22;14537;47.788;11.858;2024-03-22T03:26:11;2.80;99.90
26990;DHT22;14537;47.788;11.858;2024-03-22T03:28:37;2.80;99.90
26990;DHT22;14537;47.788;11.858;2024-03-22T03:31:03;2.80;99.90
26990;DHT22;14537;47.788;11.858;2024-03-22T03:33:28;2.70;99.90
26990;DHT22;14537;47.788;11.858;2024-03-22T03:35:54;2.70;99.90
26990;DHT22;14537;47.788;11.858;2024-03-22T03:38:19;2.70;99.90
26990;DHT22;14537;47.788;11.858;2024-03-22T03:40:45;2.70;99.90
26990;DHT22;14537;47.788;11.858;2024-03-22T03:43:10;2.70;99.90
26990;DHT22;14537;47.788;11.858;2024-03-22T03:45:36;2.70;99.90
26990;DHT22;14537;47.788;11.858;2024-03-22T03:48:03;2.60;99.90
26990;DHT22;14537;47.788;11.858;2024-03-22T03:50:28;2.60;99.90
26990;DHT22;14537;47.788;11.858;2024-03-22T03:52:54;2.50;99.90
26990;DHT22;14537;47.788;11.858;2024-03-22T03:55:19;2.50;99.90
26990;DHT22;14537;47.788;11.858;2024-03-22T03:57:45;2.50;99.90
26990;DHT22;14537;47.788;11.858;2024-03-22T04:00:11;2.50;99.90
26990;DHT22;14537;47.788;11.858;2024-03-22T04:02:36;2.50;99.90
26990;DHT22;14537;47.788;11.858;2024-03-22T04:05:02;2.40;99.90
26990;DHT22;14537;47.788;11.858;2024-03-22T04:07:27;2.40;99.90
26990;DHT22;14537;47.788;11.858;2024-03-22T04:09:54;2.40;99.90
26990;DHT22;14537;47.788;11.858;2024-03-22T04:12:20;2.30;99.90
26990;DHT22;14537;47.788;11.858;2024-03-22T04:14:45;2.30;99.90
26990;DHT22;14537;47.788;11.858;2024-03-22T04:17:11;2.30;99.90
26990;DHT22;14537;47.788;11.858;2024-03-22T04:19:37;2.30;99.90
26990;DHT22;14537;47.788;11.858;2024-03-22T04:22:03;2.20;99.90
26990;DHT22;14537;47.788;11.858;2024-03-22T04:24:29;2.10;99.90
26990;DHT22;14537;47.788;11.858;2024-03-22T04:26:54;2.10;99.90
26990;DHT22;14537;47.788;11.858;2024-03-22T04:29:20;2.00;99.90
26990;DHT22;14537;47.788;11.858;2024-03-22T04:31:45;2.10;99.90
26990;DHT22;14537;47.788;11.858;2024-03-22T04:34:11;2.10;99.90
26990;DHT22;14537;47.788;11.858;2024-03-22T04:36:36;2.00;99.90
26990;DHT22;14537;47.788;11.858;2024-03-22T04:39:02;2.00;99.90
26990;DHT22;14537;47.788;11.858;2024-03-22T04:41:29;1.90;99.90
26990;DHT22;14537;47.788;11.858;2024-03-22T04:43:54;1.90;99.90
26990;DHT22;14537;47.788;11.858;2024-03-22T04:46:20;1.90;99.90
26990;DHT22;14537;47.788;11.858;2024-03-22T04:48:45;1.80;99.90
26990;DHT22;14537;47.788;11.858;2024-03-22T04:51:11;1.80;99.90
26990;DHT22;14537;47.788;11.858;2024-03-22T04:53:36;1.70;99.90
26990;DHT22;14537;47.788;11.858;2024-03-22T04:56:02;1.70;99.90
26990;DHT22;14537;47.788;11.858;2024-03-22T04:58:28;1.60;99.90
26990;DHT22;14537;47.788;11.858;2024-03-22T05:00:57;1.60;99.90
26990;DHT22;14537;47.788;11.858;2024-03-22T05:03:23;1.60;99.90
26990;DHT22;14537;47.788;11.858;2024-03-22T05:05:49;1.60;99.90
26990;DHT22;14537;47.788;11.858;2024-03-22T05:08:15;1.70;99.90
26990;DHT22;14537;47.788;11.858;2024-03-22T05:10:41;1.70;99.90
26990;DHT22;14537;47.788;11.858;2024-03-22T05:13:07;1.70;99.90
26990;DHT22;14537;47.788;11.858;2024-03-22T05:15:33;1.70;99.90
26990;DHT22;14537;47.788;11.858;2024-03-22T05:17:59;1.70;99.90
26990;DHT22;14537;47.788;11.858;2024-03-22T05:20:25;1.70;99.90
26990;DHT22;14537;47.788;11.858;2024-03-22T05:22:51;1.70;99.90
26990;DHT22;14537;47.788;11.858;2024-03-22T05:25:16;1.70;99.90
26990;DHT22;14537;47.788;11.858;2024-03-22T05:27:42;1.60;99.90
26990;DHT22;14537;47.788;11.858;2024-03-22T05:30:09;1.60;99.90
26990;DHT22;14537;47.788;11.858;2024-03-22T05:32:35;1.60;99.90
26990;DHT22;14537;47.788;11.858;2024-03-22T05:35:00;1.60;99.90
26990;DHT22;14537;47.788;11.858;2024-03-22T05:37:26;1.70;99.90
26990;DHT22;14537;47.788;11.858;2024-03-22T05:39:52;1.70;99.90
26990;DHT22;14537;47.788;11.858;2024-03-22T05:42:17;1.70;99.90
26990;DHT22;14537;47.788;11.858;2024-03-22T05:44:44;1.70;99.90
26990;DHT22;14537;47.788;11.858;2024-03-22T05:47:10;1.80;99.90
26990;DHT22;14537;47.788;11.858;2024-03-22T05:49:35;1.90;99.90
26990;DHT22;14537;47.788;11.858;2024-03-22T05:52:01;1.90;99.90
26990;DHT22;14537;47.788;11.858;2024-03-22T05:54:26;1.90;99.90
26990;DHT22;14537;47.788;11.858;2024-03-22T05:56:52;2.00;99.90
26990;DHT22;14537;47.788;11.858;2024-03-22T05:59:18;2.00;99.90
26990;DHT22;14537;47.788;11.858;2024-03-22T06:01:43;2.10;99.90
26990;DHT22;14537;47.788;11.858;2024-03-22T06:04:09;2.10;99.90
26990;DHT22;14537;47.788;11.858;2024-03-22T06:06:35;2.20;99.90
26990;DHT22;14537;47.788;11.858;2024-03-22T06:09:02;2.30;99.90
26990;DHT22;14537;47.788;11.858;2024-03-22T06:11:34;2.40;99.90
26990;DHT22;14537;47.788;11.858;2024-03-22T06:14:00;2.60;99.90
26990;DHT22;14537;47.788;11.858;2024-03-22T06:16:26;2.70;99.90
26990;DHT22;14537;47.788;11.858;2024-03-22T06:18:51;2.80;99.90
26990;DHT22;14537;47.788;11.858;2024-03-22T06:21:17;2.90;99.90
26990;DHT22;14537;47.788;11.858;2024-03-22T06:23:51;3.00;99.90
26990;DHT22;14537;47.788;11.858;2024-03-22T06:26:17;3.10;99.90
26990;DHT22;14537;47.788;11.858;2024-03-22T06:28:43;3.20;99.90
26990;DHT22;14537;47.788;11.858;2024-03-22T06:31:08;3.30;99.90
26990;DHT22;14537;47.788;11.858;2024-03-22T06:33:34;3.40;99.90
26990;DHT22;14537;47.788;11.858;2024-03-22T06:36:00;3.50;99.90
26990;DHT22;14537;47.788;11.858;2024-03-22T06:38:26;3.60;99.90
26990;DHT22;14537;47.788;11.858;2024-03-22T06:40:51;3.70;99.90
26990;DHT22;14537;47.788;11.858;2024-03-22T06:43:17;3.90;99.90
26990;DHT22;14537;47.788;11.858;2024-03-22T06:45:43;3.90;99.90
26990;DHT22;14537;47.788;11.858;2024-03-22T06:48:08;4.10;99.90
26990;DHT22;14537;47.788;11.858;2024-03-22T06:50:34;4.20;99.90
26990;DHT22;14537;47.788;11.858;2024-03-22T06:52:59;4.30;99.90
26990;DHT22;14537;47.788;11.858;2024-03-22T06:55:25;4.40;99.90
26990;DHT22;14537;47.788;11.858;2024-03-22T06:57:50;4.50;99.90
26990;DHT22;14537;47.788;11.858;2024-03-22T07:00:18;4.70;99.90
26990;DHT22;14537;47.788;11.858;2024-03-22T07:02:44;4.80;99.90
26990;DHT22;14537;47.788;11.858;2024-03-22T07:05:10;4.90;99.90
26990;DHT22;14537;47.788;11.858;2024-03-22T07:07:36;5.10;99.90
26990;DHT22;14537;47.788;11.858;2024-03-22T07:10:03;5.20;99.90
26990;DHT22;14537;47.788;11.858;2024-03-22T07:12:31;5.30;99.90
26990;DHT22;14537;47.788;11.858;2024-03-22T07:14:57;5.40;99.90
26990;DHT22;14537;47.788;11.858;2024-03-22T07:17:23;5.60;99.90
26990;DHT22;14537;47.788;11.858;2024-03-22T07:19:53;5.70;99.90
26990;DHT22;14537;47.788;11.858;2024-03-22T07:22:19;5.90;99.90
26990;DHT22;14537;47.788;11.858;2024-03-22T07:24:45;6.00;99.90
26990;DHT22;14537;47.788;11.858;2024-03-22T07:27:11;6.10;99.90
26990;DHT22;14537;47.788;11.858;2024-03-22T07:29:37;6.20;99.90
26990;DHT22;14537;47.788;11.858;2024-03-22T07:32:03;6.30;99.90
26990;DHT22;14537;47.788;11.858;2024-03-22T07:34:29;6.40;99.90
26990;DHT22;14537;47.788;11.858;2024-03-22T07:36:54;6.50;99.90
26990;DHT22;14537;47.788;11.858;2024-03-22T07:39:20;6.50;99.90
26990;DHT22;14537;47.788;11.858;2024-03-22T07:41:46;6.50;99.90
26990;DHT22;14537;47.788;11.858;2024-03-22T07:44:11;6.60;99.90
26990;DHT22;14537;47.788;11.858;2024-03-22T07:46:37;6.70;99.90
26990;DHT22;14537;47.788;11.858;2024-03-22T07:49:02;6.70;99.90
26990;DHT22;14537;47.788;11.858;2024-03-22T07:51:30;6.70;99.90
26990;DHT22;14537;47.788;11.858;2024-03-22T07:53:55;6.70;99.90
26990;DHT22;14537;47.788;11.858;2024-03-22T07:56:21;6.80;99.90
26990;DHT22;14537;47.788;11.858;2024-03-22T07:58:47;6.90;99.90
26990;DHT22;14537;47.788;11.858;2024-03-22T08:01:13;7.00;99.90
26990;DHT22;14537;47.788;11.858;2024-03-22T08:03:38;7.10;99.90
26990;DHT22;14537;47.788;11.858;2024-03-22T08:06:04;7.10;99.90
26990;DHT22;14537;47.788;11.858;2024-03-22T08:08:29;7.30;99.90
26990;DHT22;14537;47.788;11.858;2024-03-22T08:10:55;7.50;99.90
26990;DHT22;14537;47.788;11.858;2024-03-22T08:13:21;7.60;99.90
26990;DHT22;14537;47.788;11.858;2024-03-22T08:15:46;7.80;99.90
26990;DHT22;14537;47.788;11.858;2024-03-22T08:18:12;8.00;99.90
26990;DHT22;14537;47.788;11.858;2024-03-22T08:20:38;8.20;99.90
26990;DHT22;14537;47.788;11.858;2024-03-22T08:23:05;8.40;99.90
26990;DHT22;14537;47.788;11.858;2024-03-22T08:25:31;8.50;99.90
26990;DHT22;14537;47.788;11.858;2024-03-22T08:27:57;8.80;99.90
26990;DHT22;14537;47.788;11.858;2024-03-22T08:30:23;8.90;99.90
26990;DHT22;14537;47.788;11.858;2024-03-22T08:32:49;9.10;99.90
26990;DHT22;14537;47.788;11.858;2024-03-22T08:35:14;9.20;99.90
26990;DHT22;14537;47.788;11.858;2024-03-22T08:37:40;9.40;99.90
26990;DHT22;14537;47.788;11.858;2024-03-22T08:40:06;9.70;99.90
26990;DHT22;14537;47.788;11.858;2024-03-22T08:42:32;9.70;99.90
26990;DHT22;14537;47.788;11.858;2024-03-22T08:44:58;10.00;99.90
26990;DHT22;14537;47.788;11.858;2024-03-22T08:47:24;10.00;99.90
26990;DHT22;14537;47.788;11.858;2024-03-22T08:49:49;10.10;99.90
26990;DHT22;14537;47.788;11.858;2024-03-22T08:52:15;10.20;99.90
26990;DHT22;14537;47.788;11.858;2024-03-22T08:54:41;10.30;99.90
26990;DHT22;14537;47.788;11.858;2024-03-22T08:57:06;10.30;99.90
26990;DHT22;14537;47.788;11.858;2024-03-22T08:59:32;10.40;99.90
26990;DHT22;14537;47.788;11.858;2024-03-22T09:01:58;10.50;99.90
26990;DHT22;14537;47.788;11.858;2024-03-22T09:04:25;10.30;99.90
26990;DHT22;14537;47.788;11.858;2024-03-22T09:06:50;10.50;99.90
26990;DHT22;14537;47.788;11.858;2024-03-22T09:09:16;10.70;99.90
26990;DHT22;14537;47.788;11.858;2024-03-22T09:11:42;10.70;99.90
26990;DHT22;14537;47.788;11.858;2024-03-22T09:14:08;10.80;99.90
26990;DHT22;14537;47.788;11.858;2024-03-22T09:16:33;10.80;99.90
26990;DHT22;14537;47.788;11.858;2024-03-22T09:18:59;11.00;99.90
26990;DHT22;14537;47.788;11.858;2024-03-22T09:21:25;11.10;99.90
26990;DHT22;14537;47.788;11.858;2024-03-22T09:23:50;11.20;99.90
26990;DHT22;14537;47.788;11.858;2024-03-22T09:26:16;11.10;99.90
26990;DHT22;14537;47.788;11.858;2024-03-22T09:28:41;11.30;99.90
26990;DHT22;14537;47.788;11.858;2024-03-22T09:31:08;11.50;99.90
26990;DHT22;14537;47.788;11.858;2024-03-22T09:33:33;11.70;99.90
26990;DHT22;14537;47.788;11.858;2024-03-22T09:35:59;11.80;99.90
26990;DHT22;14537;47.788;11.858;2024-03-22T09:38:25;11.80;99.90
26990;DHT22;14537;47.788;11.858;2024-03-22T09:40:51;12.00;99.90
26990;DHT22;14537;47.788;11.858;2024-03-22T09:43:20;11.90;99.90
26990;DHT22;14537;47.788;11.858;2024-03-22T09:45:50;12.00;99.90
26990;DHT22;14537;47.788;11.858;2024-03-22T09:48:19;12.10;99.90
26990;DHT22;14537;47.788;11.858;2024-03-22T09:50:49;12.00;99.90
26990;DHT22;14537;47.788;11.858;2024-03-22T09:53:21;12.10;99.90
26990;DHT22;14537;47.788;11.858;2024-03-22T09:55:51;12.20;99.90
26990;DHT22;14537;47.788;11.858;2024-03-22T09:58:17;12.10;99.90
26990;DHT22;14537;47.788;11.858;2024-03-22T10:00:43;12.10;99.90
26990;DHT22;14537;47.788;11.858;2024-03-22T10:03:10;12.20;99.90
26990;DHT22;14537;47.788;11.858;2024-03-22T10:05:36;12.40;99.90
26990;DHT22;14537;47.788;11.858;2024-03-22T10:08:03;12.50;99.90
26990;DHT22;14537;47.788;11.858;2024-03-22T10:10:28;12.50;99.90
26990;DHT22;14537;47.788;11.858;2024-03-22T10:12:54;12.40;99.90
26990;DHT22;14537;47.788;11.858;2024-03-22T10:15:20;12.50;99.90
26990;DHT22;14537;47.788;11.858;2024-03-22T10:17:46;12.70;99.90
26990;DHT22;14537;47.788;11.858;2024-03-22T10:20:14;12.70;99.90
26990;DHT22;14537;47.788;11.858;2024-03-22T10:22:47;12.80;99.90
26990;DHT22;14537;47.788;11.858;2024-03-22T10:25:13;12.90;99.90
26990;DHT22;14537;47.788;11.858;2024-03-22T10:27:40;12.90;99.90
26990;DHT22;14537;47.788;11.858;2024-03-22T10:30:10;12.90;99.90
26990;DHT22;14537;47.788;11.858;2024-03-22T10:32:36;13.00;99.90
26990;DHT22;14537;47.788;11.858;2024-03-22T10:35:06;13.00;99.90
26990;DHT22;14537;47.788;11.858;2024-03-22T10:37:35;13.10;99.90
26990;DHT22;14537;47.788;11.858;2024-03-22T10:40:04;13.10;99.90
26990;DHT22;14537;47.788;11.858;2024-03-22T10:42:39;13.20;99.90
26990;DHT22;14537;47.788;11.858;2024-03-22T10:45:06;13.30;99.90
26990;DHT22;14537;47.788;11.858;2024-03-22T10:47:34;13.20;99.90
26990;DHT22;14537;47.788;11.858;2024-03-22T10:50:10;13.30;99.90
26990;DHT22;14537;47.788;11.858;2024-03-22T10:52:48;13.30;99.90
26990;DHT22;14537;47.788;11.858;2024-03-22T10:55:22;13.20;99.90
26990;DHT22;14537;47.788;11.858;2024-03-22T10:57:49;13.40;99.90
26990;DHT22;14537;47.788;11.858;2024-03-22T11:00:16;13.60;99.90
26990;DHT22;14537;47.788;11.858;2024-03-22T11:02:43;13.60;99.90
26990;DHT22;14537;47.788;11.858;2024-03-22T11:05:17;13.60;99.90
26990;DHT22;14537;47.788;11.858;2024-03-22T11:07:44;13.60;99.90
26990;DHT22;14537;47.788;11.858;2024-03-22T11:10:12;13.70;99.90
26990;DHT22;14537;47.788;11.858;2024-03-22T11:12:41;13.70;99.90
26990;DHT22;14537;47.788;11.858;2024-03-22T11:15:09;13.60;99.90
26990;DHT22;14537;47.788;11.858;2024-03-22T11:17:36;13.60;99.90
26990;DHT22;14537;47.788;11.858;2024-03-22T11:20:02;13.60;99.90
26990;DHT22;14537;47.788;11.858;2024-03-22T11:22:28;13.60;99.90
26990;DHT22;14537;47.788;11.858;2024-03-22T11:24:54;13.80;99.90
26990;DHT22;14537;47.788;11.858;2024-03-22T11:27:19;13.80;99.90
26990;DHT22;14537;47.788;11.858;2024-03-22T11:29:45;13.80;99.90
26990;DHT22;14537;47.788;11.858;2024-03-22T11:32:15;13.90;99.90
26990;DHT22;14537;47.788;11.858;2024-03-22T11:34:41;14.00;99.90
26990;DHT22;14537;47.788;11.858;2024-03-22T11:37:07;14.00;99.90
26990;DHT22;14537;47.788;11.858;2024-03-22T11:39:35;14.00;99.90
26990;DHT22;14537;47.788;11.858;2024-03-22T11:42:03;14.00;99.90
26990;DHT22;14537;47.788;11.858;2024-03-22T11:44:31;14.00;99.90
26990;DHT22;14537;47.788;11.858;2024-03-22T11:46:57;14.00;99.90
26990;DHT22;14537;47.788;11.858;2024-03-22T11:49:22;14.20;99.90
26990;DHT22;14537;47.788;11.858;2024-03-22T11:51:48;14.30;99.90
26990;DHT22;14537;47.788;11.858;2024-03-22T11:54:14;14.40;99.90
26990;DHT22;14537;47.788;11.858;2024-03-22T11:56:40;14.40;99.90
26990;DHT22;14537;47.788;11.858;2024-03-22T11:59:06;14.30;99.90
26990;DHT22;14537;47.788;11.858;2024-03-22T12:01:33;14.30;99.90
26990;DHT22;14537;47.788;11.858;2024-03-22T12:03:59;14.50;99.90
26990;DHT22;14537;47.788;11.858;2024-03-22T12:06:24;14.60;99.90
26990;DHT22;14537;47.788;11.858;2024-03-22T12:08:50;14.70;99.90
26990;DHT22;14537;47.788;11.858;2024-03-22T12:11:16;14.60;99.90
26990;DHT22;14537;47.788;11.858;2024-03-22T12:13:42;14.60;99.90
26990;DHT22;14537;47.788;11.858;2024-03-22T12:16:07;14.70;99.90
26990;DHT22;14537;47.788;11.858;2024-03-22T12:18:33;14.90;99.90
26990;DHT22;14537;47.788;11.858;2024-03-22T12:20:59;14.90;99.90
26990;DHT22;14537;47.788;11.858;2024-03-22T12:23:25;15.00;99.90
26990;DHT22;14537;47.788;11.858;2024-03-22T12:25:51;15.00;99.90
26990;DHT22;14537;47.788;11.858;2024-03-22T12:28:18;15.10;99.90
26990;DHT22;14537;47.788;11.858;2024-03-22T12:30:44;15.30;99.90
26990;DHT22;14537;47.788;11.858;2024-03-22T12:33:10;15.50;99.90
26990;DHT22;14537;47.788;11.858;2024-03-22T12:35:39;15.60;99.90
26990;DHT22;14537;47.788;11.858;2024-03-22T12:38:05;15.90;99.90
26990;DHT22;14537;47.788;11.858;2024-03-22T12:40:31;16.10;99.90
26990;DHT22;14537;47.788;11.858;2024-03-22T12:42:58;15.90;99.60
26990;DHT22;14537;47.788;11.858;2024-03-22T12:45:24;16.00;99.90
26990;DHT22;14537;47.788;11.858;2024-03-22T12:47:50;16.00;99.90
26990;DHT22;14537;47.788;11.858;2024-03-22T12:50:15;15.80;99.90
26990;DHT22;14537;47.788;11.858;2024-03-22T12:52:41;15.80;99.90
26990;DHT22;14537;47.788;11.858;2024-03-22T12:55:09;15.80;99.90
26990;DHT22;14537;47.788;11.858;2024-03-22T12:57:35;15.90;99.90
26990;DHT22;14537;47.788;11.858;2024-03-22T13:00:01;15.90;99.90
26990;DHT22;14537;47.788;11.858;2024-03-22T13:02:26;16.20;99.90
26990;DHT22;14537;47.788;11.858;2024-03-22T13:04:52;16.40;99.90
26990;DHT22;14537;47.788;11.858;2024-03-22T13:07:22;16.10;99.80
26990;DHT22;14537;47.788;11.858;2024-03-22T13:09:47;16.30;99.90
26990;DHT22;14537;47.788;11.858;2024-03-22T13:12:13;16.40;99.10
26990;DHT22;14537;47.788;11.858;2024-03-22T13:14:39;16.50;99.70
26990;DHT22;14537;47.788;11.858;2024-03-22T13:17:04;16.70;99.90
26990;DHT22;14537;47.788;11.858;2024-03-22T13:19:30;16.90;99.90
26990;DHT22;14537;47.788;11.858;2024-03-22T13:21:55;17.10;99.70
26990;DHT22;14537;47.788;11.858;2024-03-22T13:24:21;17.10;99.90
26990;DHT22;14537;47.788;11.858;2024-03-22T13:26:46;17.20;98.60
26990;DHT22;14537;47.788;11.858;2024-03-22T13:29:12;17.20;98.20
26990;DHT22;14537;47.788;11.858;2024-03-22T13:31:39;17.10;98.70
26990;DHT22;14537;47.788;11.858;2024-03-22T13:34:05;17.10;98.40
26990;DHT22;14537;47.788;11.858;2024-03-22T13:36:30;17.00;98.30
26990;DHT22;14537;47.788;11.858;2024-03-22T13:38:58;16.80;98.70
26990;DHT22;14537;47.788;11.858;2024-03-22T13:41:24;16.70;98.70
26990;DHT22;14537;47.788;11.858;2024-03-22T13:43:50;16.80;99.70
26990;DHT22;14537;47.788;11.858;2024-03-22T13:46:15;16.80;98.60
26990;DHT22;14537;47.788;11.858;2024-03-22T13:48:43;16.70;98.10
26990;DHT22;14537;47.788;11.858;2024-03-22T13:51:08;16.80;99.50
26990;DHT22;14537;47.788;11.858;2024-03-22T13:53:34;17.10;99.50
26990;DHT22;14537;47.788;11.858;2024-03-22T13:56:00;17.40;98.90
26990;DHT22;14537;47.788;11.858;2024-03-22T13:58:26;17.60;99.10
26990;DHT22;14537;47.788;11.858;2024-03-22T14:00:53;17.80;98.80
26990;DHT22;14537;47.788;11.858;2024-03-22T14:03:18;17.90;99.20
26990;DHT22;14537;47.788;11.858;2024-03-22T14:05:44;18.10;99.20
26990;DHT22;14537;47.788;11.858;2024-03-22T14:08:10;18.20;99.10
26990;DHT22;14537;47.788;11.858;2024-03-22T14:10:35;17.80;96.80
26990;DHT22;14537;47.788;11.858;2024-03-22T14:13:01;17.30;96.40
26990;DHT22;14537;47.788;11.858;2024-03-22T14:15:27;16.90;97.60
26990;DHT22;14537;47.788;11.858;2024-03-22T14:17:57;16.90;99.80
26990;DHT22;14537;47.788;11.858;2024-03-22T14:20:24;17.20;99.90
26990;DHT22;14537;47.788;11.858;2024-03-22T14:22:50;17.20;99.10
26990;DHT22;14537;47.788;11.858;2024-03-22T14:25:16;17.30;97.90
26990;DHT22;14537;47.788;11.858;2024-03-22T14:27:42;17.40;98.00
26990;DHT22;14537;47.788;11.858;2024-03-22T14:30:12;17.40;98.50
26990;DHT22;14537;47.788;11.858;2024-03-22T14:32:39;17.30;97.70
26990;DHT22;14537;47.788;11.858;2024-03-22T14:35:08;17.30;98.90
26990;DHT22;14537;47.788;11.858;2024-03-22T14:37:34;17.20;97.60
26990;DHT22;14537;47.788;11.858;2024-03-22T14:40:00;17.20;96.60
26990;DHT22;14537;47.788;11.858;2024-03-22T14:42:26;16.90;97.10
26990;DHT22;14537;47.788;11.858;2024-03-22T14:44:51;17.30;98.30
26990;DHT22;14537;47.788;11.858;2024-03-22T14:47:17;17.50;97.60
26990;DHT22;14537;47.788;11.858;2024-03-22T14:49:44;17.70;96.00
26990;DHT22;14537;47.788;11.858;2024-03-22T14:52:10;17.50;96.10
26990;DHT22;14537;47.788;11.858;2024-03-22T14:54:35;17.50;96.40
26990;DHT22;14537;47.788;11.858;2024-03-22T14:57:01;17.80;95.90
26990;DHT22;14537;47.788;11.858;2024-03-22T14:59:29;18.00;95.90
26990;DHT22;14537;47.788;11.858;2024-03-22T15:01:55;17.70;95.70
26990;DHT22;14537;47.788;11.858;2024-03-22T15:04:21;17.70;96.10
26990;DHT22;14537;47.788;11.858;2024-03-22T15:06:47;17.50;95.30
26990;DHT22;14537;47.788;11.858;2024-03-22T15:09:17;17.40;95.80
26990;DHT22;14537;47.788;11.858;2024-03-22T15:11:44;17.40;95.60
26990;DHT22;14537;47.788;11.858;2024-03-22T15:14:10;17.70;95.80
26990;DHT22;14537;47.788;11.858;2024-03-22T15:16:35;18.20;96.80
26990;DHT22;14537;47.788;11.858;2024-03-22T15:19:01;18.70;96.00